createdAt,value
2017-09-11T00:00:36.537Z,12.93
2017-09-11T00:01:46.781Z,12.84
2017-09-11T00:02:57.036Z,13.01
2017-09-11T00:04:06.972Z,12.88
2017-09-11T00:05:17.230Z,12.86
2017-09-11T00:06:27.734Z,12.83
2017-09-11T00:07:37.662Z,12.84
2017-09-11T00:08:47.605Z,12.87
2017-09-11T00:09:57.877Z,12.93
2017-09-11T00:11:07.813Z,12.83
2017-09-11T00:12:18.324Z,12.9
2017-09-11T00:13:28.263Z,12.93
2017-09-11T00:14:38.519Z,12.94
2017-09-11T00:15:48.791Z,12.86
2017-09-11T00:16:59.528Z,12.9
2017-09-11T00:18:10.036Z,12.83
2017-09-11T00:19:20.302Z,12.9
2017-09-11T00:20:30.550Z,12.87
2017-09-11T00:21:40.798Z,12.83
2017-09-11T00:22:51.049Z,12.75
2017-09-11T00:24:00.937Z,12.73
2017-09-11T00:25:11.545Z,12.72
2017-09-11T00:26:21.818Z,12.78
2017-09-11T00:27:31.749Z,12.68
2017-09-11T00:28:42.001Z,12.61
2017-09-11T00:29:52.548Z,12.69
2017-09-11T00:31:02.798Z,12.63
2017-09-11T00:32:12.722Z,12.58
2017-09-11T00:33:22.651Z,12.65
2017-09-11T00:34:32.898Z,12.66
2017-09-11T00:35:43.387Z,12.63
2017-09-11T00:36:53.324Z,12.66
2017-09-11T00:38:03.263Z,12.53
2017-09-11T00:39:13.511Z,12.63
2017-09-11T00:40:23.445Z,12.62
2017-09-11T00:41:34.006Z,12.57
2017-09-11T00:42:43.977Z,12.68
2017-09-11T00:43:53.904Z,12.65
2017-09-11T00:45:04.151Z,12.53
2017-09-11T00:46:14.394Z,12.62
2017-09-11T00:47:24.583Z,12.61
2017-09-11T00:48:34.520Z,12.65
2017-09-11T00:49:44.766Z,12.5
2017-09-11T00:50:55.025Z,12.47
2017-09-11T00:52:05.277Z,12.47
2017-09-11T00:53:15.778Z,12.53
2017-09-11T00:54:25.718Z,12.53
2017-09-11T00:55:35.975Z,12.5
2017-09-11T00:56:46.221Z,12.53
2017-09-11T00:57:56.487Z,12.54
2017-09-11T00:59:06.986Z,12.47
2017-09-11T01:00:16.930Z,12.51
2017-09-11T01:01:27.181Z,12.51
2017-09-11T01:02:37.140Z,12.48
2017-09-11T01:03:47.381Z,12.5
2017-09-11T01:04:57.252Z,12.47
2017-09-11T01:06:07.500Z,12.4
2017-09-11T01:07:17.445Z,12.37
2017-09-11T01:08:27.694Z,12.32
2017-09-11T01:09:37.943Z,12.28
2017-09-11T01:10:48.447Z,12.35
2017-09-11T01:11:58.697Z,12.33
2017-09-11T01:13:08.955Z,12.43
2017-09-11T01:14:19.201Z,12.37
2017-09-11T01:15:29.457Z,12.32
2017-09-11T01:16:39.014Z,12.33
2017-09-11T01:17:49.252Z,12.32
2017-09-11T01:18:59.184Z,12.28
2017-09-11T01:20:09.122Z,12.25
2017-09-11T01:21:19.380Z,12.28
2017-09-11T01:22:29.253Z,12.28
2017-09-11T01:23:39.557Z,12.29
2017-09-11T01:24:49.801Z,12.32
2017-09-11T01:26:00.053Z,12.32
2017-09-11T01:27:09.996Z,12.32
2017-09-11T01:28:20.190Z,12.21
2017-09-11T01:29:30.128Z,12.3
2017-09-11T01:30:40.369Z,12.21
2017-09-11T01:31:50.646Z,12.28
2017-09-11T01:33:00.900Z,12.25
2017-09-11T01:34:10.771Z,12.29
2017-09-11T01:35:21.023Z,12.18
2017-09-11T01:36:31.271Z,12.21
2017-09-11T01:37:41.198Z,12.14
2017-09-11T01:38:50.815Z,12.12
2017-09-11T01:40:01.316Z,12.17
2017-09-11T01:41:11.570Z,12.21
2017-09-11T01:42:21.508Z,12.14
2017-09-11T01:43:31.762Z,12.05
2017-09-11T01:44:42.021Z,12.08
2017-09-11T01:45:52.202Z,12.1
2017-09-11T01:47:02.452Z,12.05
2017-09-11T01:48:12.700Z,12.07
2017-09-11T01:49:22.935Z,12.1
2017-09-11T01:50:32.873Z,12.08
2017-09-11T01:51:43.059Z,12
2017-09-11T01:52:52.681Z,11.99
2017-09-11T01:54:02.614Z,11.93
2017-09-11T01:55:12.550Z,11.95
2017-09-11T01:56:22.801Z,11.96
2017-09-11T01:57:32.979Z,11.95
2017-09-11T01:58:43.230Z,12.02
2017-09-11T01:59:53.490Z,11.99
2017-09-11T02:01:03.432Z,11.96
2017-09-11T02:02:13.375Z,12.05
2017-09-11T02:03:23.882Z,11.97
2017-09-11T02:04:34.160Z,11.99
2017-09-11T02:05:44.114Z,12
2017-09-11T02:06:54.358Z,12.05
2017-09-11T02:08:04.287Z,12.05
2017-09-11T02:09:14.793Z,12.02
2017-09-11T02:10:24.725Z,11.99
2017-09-11T02:11:34.658Z,12.02
2017-09-11T02:12:44.583Z,11.96
2017-09-11T02:13:54.829Z,11.99
2017-09-11T02:15:05.010Z,11.95
2017-09-11T02:16:15.266Z,11.91
2017-09-11T02:17:25.519Z,11.89
2017-09-11T02:18:35.807Z,11.93
2017-09-11T02:19:46.058Z,11.89
2017-09-11T02:20:55.933Z,11.89
2017-09-11T02:22:05.554Z,11.86
2017-09-11T02:23:15.788Z,11.95
2017-09-11T02:24:26.041Z,11.96
2017-09-11T02:25:35.664Z,11.88
2017-09-11T02:26:45.849Z,11.93
2017-09-11T02:27:56.105Z,11.93
2017-09-11T02:29:06.356Z,11.83
2017-09-11T02:30:16.611Z,11.86
2017-09-11T02:31:26.862Z,11.89
2017-09-11T02:32:37.050Z,11.83
2017-09-11T02:33:47.302Z,11.86
2017-09-11T02:34:57.558Z,11.88
2017-09-11T02:36:07.808Z,11.81
2017-09-11T02:37:18.054Z,11.77
2017-09-11T02:38:28.251Z,11.81
2017-09-11T02:39:38.195Z,11.78
2017-09-11T02:40:48.136Z,11.86
2017-09-11T02:41:57.759Z,11.77
2017-09-11T02:43:07.693Z,11.71
2017-09-11T02:44:18.201Z,11.7
2017-09-11T02:45:28.135Z,11.63
2017-09-11T02:46:38.072Z,11.63
2017-09-11T02:47:48.009Z,11.7
2017-09-11T02:48:58.265Z,11.62
2017-09-11T02:50:08.462Z,11.67
2017-09-11T02:51:18.399Z,11.67
2017-09-11T02:52:28.656Z,11.65
2017-09-11T02:53:38.620Z,11.68
2017-09-11T02:54:48.882Z,11.68
2017-09-11T02:55:59.374Z,11.65
2017-09-11T02:57:09.622Z,11.65
2017-09-11T02:58:19.868Z,11.63
2017-09-11T02:59:29.500Z,11.71
2017-09-11T03:00:39.746Z,11.71
2017-09-11T03:01:50.237Z,11.77
2017-09-11T03:03:00.505Z,11.8
2017-09-11T03:04:10.751Z,11.76
2017-09-11T03:05:21.003Z,11.83
2017-09-11T03:06:31.260Z,11.83
2017-09-11T03:07:41.193Z,11.81
2017-09-11T03:08:51.454Z,11.88
2017-09-11T03:10:01.719Z,11.77
2017-09-11T03:11:11.966Z,11.8
2017-09-11T03:12:22.207Z,11.99
2017-09-11T03:13:32.703Z,11.85
2017-09-11T03:14:42.633Z,11.91
2017-09-11T03:15:52.885Z,11.86
2017-09-11T03:17:02.826Z,11.86
2017-09-11T03:18:12.756Z,11.85
2017-09-11T03:19:22.945Z,11.88
2017-09-11T03:20:33.211Z,11.83
2017-09-11T03:21:43.143Z,11.96
2017-09-11T03:22:53.077Z,11.83
2017-09-11T03:24:03.004Z,11.86
2017-09-11T03:25:13.501Z,11.93
2017-09-11T03:26:23.115Z,11.91
2017-09-11T03:27:33.045Z,11.95
2017-09-11T03:28:43.302Z,11.89
2017-09-11T03:29:53.553Z,11.95
2017-09-11T03:31:03.741Z,11.95
2017-09-11T03:32:13.994Z,11.91
2017-09-11T03:33:24.285Z,12.02
2017-09-11T03:34:34.222Z,12.02
2017-09-11T03:35:44.479Z,12
2017-09-11T03:36:54.996Z,12
2017-09-11T03:38:04.927Z,11.95
2017-09-11T03:39:15.173Z,11.96
2017-09-11T03:40:25.423Z,11.97
2017-09-11T03:41:35.678Z,11.93
2017-09-11T03:42:46.222Z,11.99
2017-09-11T03:43:56.467Z,11.95
2017-09-11T03:45:06.716Z,11.91
2017-09-11T03:46:16.966Z,11.99
2017-09-11T03:47:26.900Z,11.97
2017-09-11T03:48:37.405Z,12.02
2017-09-11T03:49:47.372Z,12.02
2017-09-11T03:50:57.624Z,12
2017-09-11T03:52:07.867Z,11.99
2017-09-11T03:53:17.499Z,12
2017-09-11T03:54:28.005Z,12
2017-09-11T03:55:38.247Z,12.03
2017-09-11T03:56:48.506Z,11.99
2017-09-11T03:57:58.750Z,11.99
2017-09-11T03:59:08.997Z,12
2017-09-11T04:00:19.189Z,12.02
2017-09-11T04:01:29.452Z,12
2017-09-11T04:02:39.702Z,12
2017-09-11T04:03:49.626Z,12.03
2017-09-11T04:04:59.567Z,12.12
2017-09-11T04:06:10.073Z,12.11
2017-09-11T04:07:20.316Z,12.1
2017-09-11T04:08:30.576Z,12.1
2017-09-11T04:09:40.826Z,12.07
2017-09-11T04:10:51.114Z,12.11
2017-09-11T04:12:01.607Z,12.07
2017-09-11T04:13:11.868Z,12.08
2017-09-11T04:14:21.801Z,12.03
2017-09-11T04:15:31.421Z,12.12
2017-09-11T04:16:41.356Z,12.07
2017-09-11T04:17:51.869Z,11.96
2017-09-11T04:19:02.108Z,12.08
2017-09-11T04:20:12.359Z,12.03
2017-09-11T04:21:22.610Z,12.08
2017-09-11T04:22:33.095Z,12.02
2017-09-11T04:23:43.283Z,11.99
2017-09-11T04:24:53.225Z,12
2017-09-11T04:26:03.505Z,12.03
2017-09-11T04:27:13.757Z,11.96
2017-09-11T04:28:24.020Z,12.02
2017-09-11T04:29:34.210Z,12.05
2017-09-11T04:30:44.513Z,12.05
2017-09-11T04:31:54.442Z,11.97
2017-09-11T04:33:04.694Z,11.99
2017-09-11T04:34:14.635Z,12.03
2017-09-11T04:35:24.506Z,11.93
2017-09-11T04:36:34.762Z,11.96
2017-09-11T04:37:45.010Z,11.88
2017-09-11T04:38:55.261Z,11.83
2017-09-11T04:40:04.879Z,11.8
2017-09-11T04:41:15.385Z,11.67
2017-09-11T04:42:25.626Z,11.7
2017-09-11T04:43:35.872Z,11.63
2017-09-11T04:44:45.515Z,11.6
2017-09-11T04:45:55.771Z,11.52
2017-09-11T04:47:06.259Z,11.45
2017-09-11T04:48:16.200Z,11.48
2017-09-11T04:49:26.158Z,11.43
2017-09-11T04:50:36.097Z,11.45
2017-09-11T04:51:46.344Z,11.37
2017-09-11T04:52:56.524Z,11.4
2017-09-11T04:54:06.472Z,11.35
2017-09-11T04:55:17.215Z,11.38
2017-09-11T04:56:27.157Z,11.31
2017-09-11T04:57:37.399Z,11.43
2017-09-11T04:58:47.893Z,11.4
2017-09-11T04:59:57.521Z,11.34
2017-09-11T05:01:07.770Z,11.41
2017-09-11T05:02:18.028Z,11.43
2017-09-11T05:03:28.282Z,11.33
2017-09-11T05:04:38.798Z,11.43
2017-09-11T05:05:48.732Z,11.51
2017-09-11T05:06:58.983Z,11.44
2017-09-11T05:08:09.241Z,11.53
2017-09-11T05:09:18.858Z,11.44
2017-09-11T05:10:29.091Z,11.44
2017-09-11T05:11:39.029Z,11.45
2017-09-11T05:12:49.277Z,11.48
2017-09-11T05:13:59.540Z,11.55
2017-09-11T05:15:09.793Z,11.51
2017-09-11T05:16:19.660Z,11.55
2017-09-11T05:17:29.913Z,11.62
2017-09-11T05:18:40.165Z,11.55
2017-09-11T05:19:50.433Z,11.49
2017-09-11T05:21:00.680Z,11.6
2017-09-11T05:22:10.873Z,11.53
2017-09-11T05:23:21.129Z,11.53
2017-09-11T05:24:31.399Z,11.67
2017-09-11T05:25:41.331Z,11.62
2017-09-11T05:26:51.587Z,11.74
2017-09-11T05:28:01.773Z,11.74
2017-09-11T05:29:12.028Z,11.83
2017-09-11T05:30:22.277Z,11.8
2017-09-11T05:31:32.212Z,11.71
2017-09-11T05:32:42.698Z,11.74
2017-09-11T05:33:52.893Z,11.77
2017-09-11T05:35:02.838Z,11.89
2017-09-11T05:36:13.100Z,11.99
2017-09-11T05:37:23.347Z,11.85
2017-09-11T05:38:33.627Z,11.96
2017-09-11T05:39:44.173Z,11.91
2017-09-11T05:40:54.358Z,11.97
2017-09-11T05:42:04.615Z,11.93
2017-09-11T05:43:14.882Z,12
2017-09-11T05:44:25.143Z,12.07
2017-09-11T05:45:35.327Z,12.02
2017-09-11T05:46:45.579Z,12
2017-09-11T05:47:55.528Z,12.1
2017-09-11T05:49:05.800Z,11.97
2017-09-11T05:50:16.051Z,12.11
2017-09-11T05:51:26.568Z,12.1
2017-09-11T05:52:36.823Z,12.05
2017-09-11T05:53:46.676Z,12.23
2017-09-11T05:54:56.310Z,12.15
2017-09-11T05:56:06.585Z,12.26
2017-09-11T05:57:17.295Z,12.2
2017-09-11T05:58:27.541Z,12.36
2017-09-11T05:59:37.822Z,12.39
2017-09-11T06:00:47.753Z,12.33
2017-09-11T06:01:58.008Z,12.39
2017-09-11T06:03:08.529Z,12.45
2017-09-11T06:04:18.784Z,12.53
2017-09-11T06:05:28.739Z,12.51
2017-09-11T06:06:39.000Z,12.65
2017-09-11T06:07:49.268Z,12.7
2017-09-11T06:08:59.482Z,12.73
2017-09-11T06:10:09.751Z,12.76
2017-09-11T06:11:19.699Z,12.84
2017-09-11T06:12:29.335Z,12.84
2017-09-11T06:13:39.593Z,12.83
2017-09-11T06:14:50.108Z,12.9
2017-09-11T06:16:00.367Z,12.9
2017-09-11T06:17:10.311Z,13.02
2017-09-11T06:18:20.591Z,12.88
2017-09-11T06:19:30.541Z,12.94
2017-09-11T06:20:41.063Z,13.02
2017-09-11T06:21:51.321Z,13.11
2017-09-11T06:23:01.267Z,13.17
2017-09-11T06:24:11.204Z,13.24
2017-09-11T06:25:21.460Z,13.26
2017-09-11T06:26:31.961Z,13.3
2017-09-11T06:27:42.219Z,13.24
2017-09-11T06:28:52.175Z,13.26
2017-09-11T06:30:02.427Z,13.39
2017-09-11T06:31:12.374Z,13.39
2017-09-11T06:32:22.883Z,13.42
2017-09-11T06:33:33.158Z,13.39
2017-09-11T06:34:43.433Z,13.43
2017-09-11T06:35:53.389Z,13.52
2017-09-11T06:37:03.640Z,13.54
2017-09-11T06:38:14.136Z,13.6
2017-09-11T06:39:24.432Z,13.62
2017-09-11T06:40:34.684Z,13.67
2017-09-11T06:41:44.935Z,13.75
2017-09-11T06:42:55.194Z,13.76
2017-09-11T06:44:05.398Z,13.87
2017-09-11T06:45:15.360Z,13.93
2017-09-11T06:46:25.307Z,13.94
2017-09-11T06:47:35.447Z,14
2017-09-11T06:48:45.393Z,13.95
2017-09-11T06:49:55.887Z,14.04
2017-09-11T06:51:05.831Z,14.13
2017-09-11T06:52:15.787Z,14.23
2017-09-11T06:53:26.050Z,14.25
2017-09-11T06:54:36.343Z,14.25
2017-09-11T06:55:46.847Z,14.37
2017-09-11T06:56:56.779Z,14.36
2017-09-11T06:58:07.033Z,14.38
2017-09-11T06:59:17.275Z,14.48
2017-09-11T07:00:27.534Z,14.56
2017-09-11T07:01:38.071Z,14.63
2017-09-11T07:02:48.019Z,14.68
2017-09-11T07:03:58.281Z,14.74
2017-09-11T07:05:08.532Z,14.87
2017-09-11T07:06:18.458Z,14.87
2017-09-11T07:07:28.656Z,15.07
2017-09-11T07:08:38.913Z,15.15
2017-09-11T07:09:49.167Z,15.19
2017-09-11T07:10:59.425Z,15.18
2017-09-11T07:12:09.369Z,15.19
2017-09-11T07:13:19.889Z,15.14
2017-09-11T07:14:30.159Z,15.12
2017-09-11T07:15:40.102Z,15.22
2017-09-11T07:16:50.026Z,15.27
2017-09-11T07:17:59.963Z,15.23
2017-09-11T07:19:10.470Z,15.25
2017-09-11T07:20:20.418Z,15.41
2017-09-11T07:21:30.352Z,15.35
2017-09-11T07:22:40.638Z,15.41
2017-09-11T07:23:50.279Z,15.5
2017-09-11T07:25:00.788Z,15.5
2017-09-11T07:26:10.418Z,15.57
2017-09-11T07:27:20.372Z,15.54
2017-09-11T07:28:30.358Z,15.63
2017-09-11T07:29:40.316Z,15.66
2017-09-11T07:30:50.839Z,15.63
2017-09-11T07:32:01.108Z,15.66
2017-09-11T07:33:11.097Z,15.63
2017-09-11T07:34:21.066Z,15.72
2017-09-11T07:35:31.320Z,15.73
2017-09-11T07:36:41.827Z,15.75
2017-09-11T07:37:51.801Z,15.7
2017-09-11T07:39:02.079Z,15.7
2017-09-11T07:40:12.333Z,15.67
2017-09-11T07:41:22.616Z,15.7
2017-09-11T07:42:33.130Z,15.76
2017-09-11T07:43:43.381Z,15.9
2017-09-11T07:44:53.320Z,15.91
2017-09-11T07:46:03.590Z,15.87
2017-09-11T07:47:12.897Z,16.02
2017-09-11T07:48:23.406Z,16.1
2017-09-11T07:49:33.053Z,16.25
2017-09-11T07:50:43.033Z,16.24
2017-09-11T07:51:53.313Z,16.22
2017-09-11T07:53:03.628Z,16.28
2017-09-11T07:54:14.159Z,16.26
2017-09-11T07:55:24.447Z,16.37
2017-09-11T07:56:34.722Z,16.32
2017-09-11T07:57:44.966Z,16.4
2017-09-11T07:58:55.266Z,16.36
2017-09-11T08:00:05.494Z,16.49
2017-09-11T08:01:15.761Z,16.46
2017-09-11T08:02:26.016Z,16.44
2017-09-11T08:03:35.964Z,16.54
2017-09-11T08:04:45.635Z,16.5
2017-09-11T08:05:55.818Z,16.47
2017-09-11T08:07:06.072Z,16.51
2017-09-11T08:08:16.336Z,16.62
2017-09-11T08:09:26.589Z,16.55
2017-09-11T08:10:36.547Z,16.59
2017-09-11T08:11:46.437Z,16.65
2017-09-11T08:12:56.462Z,16.62
2017-09-11T08:14:06.749Z,16.66
2017-09-11T08:15:17.030Z,16.66
2017-09-11T08:16:26.352Z,16.69
2017-09-11T08:17:36.262Z,16.74
2017-09-11T08:18:46.625Z,16.77
2017-09-11T08:19:56.706Z,16.73
2017-09-11T08:21:07.066Z,16.76
2017-09-11T08:22:17.349Z,16.84
2017-09-11T08:23:27.884Z,16.79
2017-09-11T08:24:38.158Z,16.91
2017-09-11T08:25:48.450Z,16.92
2017-09-11T08:26:58.723Z,17.02
2017-09-11T08:28:09.029Z,17.01
2017-09-11T08:29:19.242Z,16.97
2017-09-11T08:30:29.546Z,17.09
2017-09-11T08:31:39.817Z,17.04
2017-09-11T08:32:49.447Z,17.1
2017-09-11T08:33:59.367Z,17.12
2017-09-11T08:35:09.877Z,17.16
2017-09-11T08:36:19.812Z,17.2
2017-09-11T08:37:29.779Z,17.16
2017-09-11T08:38:39.728Z,17.27
2017-09-11T08:39:50.015Z,17.27
2017-09-11T08:41:00.231Z,17.28
2017-09-11T08:42:10.490Z,17.17
2017-09-11T08:43:20.441Z,17.1
2017-09-11T08:44:30.403Z,17.02
2017-09-11T08:45:40.395Z,17.13
2017-09-11T08:46:50.652Z,17.13
2017-09-11T08:48:00.920Z,17.17
2017-09-11T08:49:10.874Z,17.13
2017-09-11T08:50:21.149Z,17.01
2017-09-11T08:51:31.100Z,17.09
2017-09-11T08:52:41.620Z,17.05
2017-09-11T08:53:51.575Z,17.05
2017-09-11T08:55:01.842Z,17.13
2017-09-11T08:56:12.120Z,17.07
2017-09-11T08:57:22.407Z,17.12
2017-09-11T08:58:32.926Z,17.13
2017-09-11T08:59:42.913Z,17.1
2017-09-11T09:00:53.192Z,17.14
2017-09-11T09:02:03.473Z,17.22
2017-09-11T09:03:13.438Z,17.17
2017-09-11T09:04:23.982Z,17.19
2017-09-11T09:05:34.261Z,17.2
2017-09-11T09:06:44.228Z,17.27
2017-09-11T09:07:54.491Z,17.23
2017-09-11T09:09:04.809Z,17.24
2017-09-11T09:10:15.325Z,17.14
2017-09-11T09:11:25.361Z,17.16
2017-09-11T09:12:35.669Z,17.2
2017-09-11T09:13:45.942Z,17.16
2017-09-11T09:14:55.901Z,17.2
2017-09-11T09:16:06.422Z,17.23
2017-09-11T09:17:16.369Z,17.32
2017-09-11T09:18:26.622Z,17.42
2017-09-11T09:19:36.572Z,17.52
2017-09-11T09:20:46.190Z,17.72
2017-09-11T09:21:56.700Z,17.59
2017-09-11T09:23:06.974Z,17.76
2017-09-11T09:24:17.231Z,17.72
2017-09-11T09:25:27.503Z,17.63
2017-09-11T09:26:37.767Z,17.6
2017-09-11T09:27:48.295Z,17.59
2017-09-11T09:28:58.551Z,17.65
2017-09-11T09:30:08.838Z,17.68
2017-09-11T09:31:19.172Z,17.76
2017-09-11T09:32:29.471Z,17.87
2017-09-11T09:33:39.992Z,17.93
2017-09-11T09:34:50.356Z,17.98
2017-09-11T09:36:00.636Z,18.06
2017-09-11T09:37:10.947Z,18.12
2017-09-11T09:38:20.905Z,18.24
2017-09-11T09:39:31.422Z,18.42
2017-09-11T09:40:41.717Z,18.37
2017-09-11T09:41:51.672Z,18.45
2017-09-11T09:43:01.952Z,18.63
2017-09-11T09:44:11.889Z,18.71
2017-09-11T09:45:22.470Z,18.76
2017-09-11T09:46:32.736Z,18.83
2017-09-11T09:47:43.012Z,18.91
2017-09-11T09:48:52.983Z,18.96
2017-09-11T09:50:03.286Z,19.08
2017-09-11T09:51:13.880Z,19.04
2017-09-11T09:52:24.187Z,18.96
2017-09-11T09:53:34.457Z,19.04
2017-09-11T09:54:44.430Z,19.04
2017-09-11T09:55:54.742Z,19.17
2017-09-11T09:57:04.946Z,19.19
2017-09-11T09:58:15.514Z,19.39
2017-09-11T09:59:25.785Z,19.45
2017-09-11T10:00:36.065Z,19.48
2017-09-11T10:01:46.581Z,19.59
2017-09-11T10:02:57.055Z,19.72
2017-09-11T10:04:06.999Z,19.79
2017-09-11T10:05:16.631Z,19.79
2017-09-11T10:06:26.588Z,19.82
2017-09-11T10:07:36.542Z,19.99
2017-09-11T10:08:47.056Z,20
2017-09-11T10:09:57.003Z,20.17
2017-09-11T10:11:07.271Z,20.33
2017-09-11T10:12:17.566Z,20.53
2017-09-11T10:13:27.800Z,20.71
2017-09-11T10:14:38.405Z,20.88
2017-09-11T10:15:48.381Z,21.03
2017-09-11T10:16:58.337Z,21.26
2017-09-11T10:18:08.617Z,21.41
2017-09-11T10:19:18.903Z,21.66
2017-09-11T10:20:29.445Z,21.5
2017-09-11T10:21:39.113Z,21.29
2017-09-11T10:22:49.435Z,21.15
2017-09-11T10:23:59.069Z,21.14
2017-09-11T10:25:09.335Z,21.05
2017-09-11T10:26:19.862Z,21.13
2017-09-11T10:27:29.814Z,21.26
2017-09-11T10:28:40.078Z,21
2017-09-11T10:29:50.370Z,20.85
2017-09-11T10:31:00.649Z,20.89
2017-09-11T10:32:11.215Z,20.98
2017-09-11T10:33:21.176Z,20.93
2017-09-11T10:34:31.133Z,21.13
2017-09-11T10:35:41.406Z,21.35
2017-09-11T10:36:51.720Z,21.4
2017-09-11T10:38:01.948Z,21.53
2017-09-11T10:39:12.250Z,21.32
2017-09-11T10:40:22.519Z,21
2017-09-11T10:41:32.484Z,21.01
2017-09-11T10:42:42.462Z,20.98
2017-09-11T10:43:52.979Z,20.9
2017-09-11T10:45:03.277Z,20.89
2017-09-11T10:46:13.557Z,20.82
2017-09-11T10:47:23.878Z,20.73
2017-09-11T10:48:34.165Z,20.74
2017-09-11T10:49:44.461Z,20.89
2017-09-11T10:50:54.756Z,20.88
2017-09-11T10:52:05.045Z,21.19
2017-09-11T10:53:15.324Z,21.29
2017-09-11T10:54:25.600Z,21.45
2017-09-11T10:55:36.123Z,21.56
2017-09-11T10:56:46.423Z,21.38
2017-09-11T10:57:56.073Z,21.28
2017-09-11T10:59:06.341Z,21.17
2017-09-11T11:00:16.608Z,21.05
2017-09-11T11:01:27.188Z,21.22
2017-09-11T11:02:37.470Z,21.33
2017-09-11T11:03:47.989Z,21.53
2017-09-11T11:04:57.970Z,21.35
2017-09-11T11:06:08.232Z,21.23
2017-09-11T11:07:18.758Z,21.23
2017-09-11T11:08:29.041Z,21.32
2017-09-11T11:09:38.987Z,21.4
2017-09-11T11:10:49.238Z,21.29
2017-09-11T11:11:59.182Z,21.01
2017-09-11T11:13:09.366Z,20.89
2017-09-11T11:14:19.315Z,20.8
2017-09-11T11:15:29.596Z,20.75
2017-09-11T11:16:39.856Z,20.82
2017-09-11T11:17:50.122Z,20.7
2017-09-11T11:19:00.993Z,20.74
2017-09-11T11:20:11.263Z,20.75
2017-09-11T11:21:21.540Z,20.74
2017-09-11T11:22:31.803Z,20.59
2017-09-11T11:23:41.741Z,20.53
2017-09-11T11:24:52.264Z,20.48
2017-09-11T11:26:02.223Z,20.44
2017-09-11T11:27:12.483Z,20.32
2017-09-11T11:28:22.438Z,20.42
2017-09-11T11:29:32.399Z,20.4
2017-09-11T11:30:42.938Z,20.52
2017-09-11T11:31:52.894Z,20.46
2017-09-11T11:33:02.858Z,20.55
2017-09-11T11:34:13.165Z,20.53
2017-09-11T11:35:23.349Z,20.52
2017-09-11T11:36:33.849Z,20.46
2017-09-11T11:37:44.143Z,20.32
2017-09-11T11:38:54.407Z,20.29
2017-09-11T11:40:04.737Z,20.26
2017-09-11T11:41:15.155Z,20.27
2017-09-11T11:42:25.522Z,20.19
2017-09-11T11:43:36.199Z,20.19
2017-09-11T11:44:46.193Z,20.27
2017-09-11T11:45:56.515Z,20.3
2017-09-11T11:47:07.021Z,20.29
2017-09-11T11:48:16.652Z,20.46
2017-09-11T11:49:26.959Z,20.55
2017-09-11T11:50:37.378Z,20.55
2017-09-11T11:51:47.686Z,20.48
2017-09-11T11:52:57.716Z,20.36
2017-09-11T11:54:08.223Z,20.18
2017-09-11T11:55:18.501Z,20.18
2017-09-11T11:56:28.767Z,20.19
2017-09-11T11:57:39.038Z,20.27
2017-09-11T11:58:49.339Z,20.3
2017-09-11T11:59:59.914Z,20.4
2017-09-11T12:01:09.867Z,20.48
2017-09-11T12:02:20.158Z,20.58
2017-09-11T12:03:30.142Z,20.42
2017-09-11T12:04:40.082Z,20.42
2017-09-11T12:05:50.596Z,20.44
2017-09-11T12:07:00.545Z,20.4
2017-09-11T12:08:10.499Z,20.5
2017-09-11T12:09:20.774Z,20.44
2017-09-11T12:10:31.187Z,20.34
2017-09-11T12:11:41.711Z,20.32
2017-09-11T12:12:51.982Z,20.33
2017-09-11T12:14:01.628Z,20.19
2017-09-11T12:15:11.938Z,20.17
2017-09-11T12:16:22.149Z,20.12
2017-09-11T12:17:32.736Z,20.15
2017-09-11T12:18:42.996Z,20.1
2017-09-11T12:19:53.367Z,20.08
2017-09-11T12:21:03.330Z,20.14
2017-09-11T12:22:13.322Z,20
2017-09-11T12:23:23.553Z,20.03
2017-09-11T12:24:33.490Z,19.99
2017-09-11T12:25:43.791Z,19.87
2017-09-11T12:26:54.061Z,19.92
2017-09-11T12:28:04.373Z,19.87
2017-09-11T12:29:14.905Z,19.75
2017-09-11T12:30:24.865Z,19.71
2017-09-11T12:31:34.837Z,19.81
2017-09-11T12:32:45.119Z,19.74
2017-09-11T12:33:55.396Z,19.72
2017-09-11T12:35:05.345Z,19.67
2017-09-11T12:36:15.604Z,19.59
2017-09-11T12:37:25.536Z,19.55
2017-09-11T12:38:35.500Z,19.55
2017-09-11T12:39:45.428Z,19.56
2017-09-11T12:40:55.686Z,19.7
2017-09-11T12:42:05.947Z,19.77
2017-09-11T12:43:16.214Z,19.71
2017-09-11T12:44:26.529Z,19.7
2017-09-11T12:45:36.486Z,19.66
2017-09-11T12:46:47.015Z,19.64
2017-09-11T12:47:56.657Z,19.59
2017-09-11T12:49:06.607Z,19.6
2017-09-11T12:50:16.231Z,19.53
2017-09-11T12:51:26.200Z,19.63
2017-09-11T12:52:36.954Z,19.66
2017-09-11T12:53:46.915Z,19.62
2017-09-11T12:54:56.943Z,19.56
2017-09-11T12:56:07.217Z,19.56
2017-09-11T12:57:17.485Z,19.57
2017-09-11T12:58:28.042Z,19.56
2017-09-11T12:59:38.346Z,19.55
2017-09-11T13:00:48.604Z,19.57
2017-09-11T13:01:58.874Z,19.55
2017-09-11T13:03:08.837Z,19.49
2017-09-11T13:04:18.703Z,19.49
2017-09-11T13:05:28.972Z,19.71
2017-09-11T13:06:39.242Z,19.72
2017-09-11T13:07:49.184Z,19.71
2017-09-11T13:08:59.108Z,19.78
2017-09-11T13:10:09.635Z,19.72
2017-09-11T13:11:19.832Z,19.72
2017-09-11T13:12:29.767Z,19.82
2017-09-11T13:13:40.031Z,19.66
2017-09-11T13:14:50.285Z,19.38
2017-09-11T13:16:00.154Z,19.41
2017-09-11T13:17:10.119Z,19.07
2017-09-11T13:18:20.071Z,18.89
2017-09-11T13:19:30.027Z,18.98
2017-09-11T13:20:40.296Z,19.07
2017-09-11T13:21:50.811Z,19.04
2017-09-11T13:23:00.755Z,19.05
2017-09-11T13:24:10.687Z,19.19
2017-09-11T13:25:20.315Z,19.17
2017-09-11T13:26:30.574Z,19.19
2017-09-11T13:27:41.082Z,19.23
2017-09-11T13:28:51.056Z,19.37
2017-09-11T13:30:01.328Z,19.57
2017-09-11T13:31:11.259Z,19.72
2017-09-11T13:32:21.539Z,19.9
2017-09-11T13:33:32.050Z,20.14
2017-09-11T13:34:42.295Z,20.21
2017-09-11T13:35:52.611Z,20.19
2017-09-11T13:37:02.241Z,20.33
2017-09-11T13:38:12.502Z,20.24
2017-09-11T13:39:23.033Z,20.07
2017-09-11T13:40:33.297Z,20.1
2017-09-11T13:41:43.588Z,20.22
2017-09-11T13:42:53.515Z,20.44
2017-09-11T13:44:03.455Z,20.52
2017-09-11T13:45:13.905Z,20.6
2017-09-11T13:46:24.147Z,20.73
2017-09-11T13:47:34.103Z,20.53
2017-09-11T13:48:44.371Z,20.74
2017-09-11T13:49:54.650Z,20.95
2017-09-11T13:51:04.843Z,20.86
2017-09-11T13:52:14.774Z,20.85
2017-09-11T13:53:25.048Z,20.73
2017-09-11T13:54:34.991Z,20.29
2017-09-11T13:55:45.264Z,20.21
2017-09-11T13:56:55.161Z,20.21
2017-09-11T13:58:05.449Z,20.29
2017-09-11T13:59:15.714Z,20.18
2017-09-11T14:00:25.962Z,20.14
2017-09-11T14:01:36.231Z,20.11
2017-09-11T14:02:46.146Z,20.27
2017-09-11T14:03:56.424Z,19.97
2017-09-11T14:05:06.711Z,19.81
2017-09-11T14:06:16.968Z,19.82
2017-09-11T14:07:26.922Z,19.77
2017-09-11T14:08:37.471Z,19.89
2017-09-11T14:09:47.743Z,19.96
2017-09-11T14:10:58.040Z,20.24
2017-09-11T14:12:08.303Z,20.4
2017-09-11T14:13:18.605Z,20.56
2017-09-11T14:14:28.812Z,20.55
2017-09-11T14:15:39.081Z,20.6
2017-09-11T14:16:49.335Z,20.53
2017-09-11T14:17:59.590Z,20.29
2017-09-11T14:19:09.529Z,20.22
2017-09-11T14:20:20.057Z,20.11
2017-09-11T14:21:30.326Z,20.15
2017-09-11T14:22:39.640Z,20.18
2017-09-11T14:23:49.884Z,20.12
2017-09-11T14:24:59.834Z,19.97
2017-09-11T14:26:10.410Z,19.85
2017-09-11T14:27:20.725Z,19.93
2017-09-11T14:28:30.951Z,19.78
2017-09-11T14:29:40.906Z,19.78
2017-09-11T14:30:51.160Z,19.74
2017-09-11T14:32:01.691Z,19.66
2017-09-11T14:33:11.941Z,19.71
2017-09-11T14:34:21.874Z,19.74
2017-09-11T14:35:31.805Z,19.9
2017-09-11T14:36:42.077Z,20
2017-09-11T14:37:52.596Z,20.22
2017-09-11T14:39:02.898Z,20.26
2017-09-11T14:40:13.157Z,20.44
2017-09-11T14:41:23.461Z,20.29
2017-09-11T14:42:33.410Z,20.29
2017-09-11T14:43:43.607Z,20.37
2017-09-11T14:44:53.861Z,20.12
2017-09-11T14:46:04.132Z,20
2017-09-11T14:47:14.081Z,19.97
2017-09-11T14:48:24.729Z,19.85
2017-09-11T14:49:34.935Z,19.82
2017-09-11T14:50:44.876Z,19.71
2017-09-11T14:51:55.135Z,19.7
2017-09-11T14:53:05.403Z,19.63
2017-09-11T14:54:15.674Z,19.67
2017-09-11T14:55:26.275Z,19.55
2017-09-11T14:56:36.542Z,19.57
2017-09-11T14:57:46.798Z,19.55
2017-09-11T14:58:56.428Z,19.48
2017-09-11T15:00:06.710Z,19.53
2017-09-11T15:01:17.228Z,19.57
2017-09-11T15:02:27.501Z,19.48
2017-09-11T15:03:37.763Z,19.55
2017-09-11T15:04:48.016Z,19.62
2017-09-11T15:05:58.300Z,19.64
2017-09-11T15:07:08.823Z,19.63
2017-09-11T15:08:19.082Z,19.59